sensor_id;sensor_type;location;lat;lon;timestamp;P1;durP1;ratioP1;P2;durP2;ratioP2
58752;SDS011;44525;46.052;13.610;2022-10-16T00:00:32;47.25;;;27.02;;
58752;SDS011;44525;46.052;13.610;2022-10-16T00:03:00;47.10;;;26.20;;
58752;SDS011;44525;46.052;13.610;2022-10-16T00:05:25;57.47;;;26.52;;
58752;SDS011;44525;46.052;13.610;2022-10-16T00:07:51;49.70;;;27.15;;
58752;SDS011;44525;46.052;13.610;2022-10-16T00:10:16;54.97;;;28.23;;
58752;SDS011;44525;46.052;13.610;2022-10-16T00:12:42;57.25;;;29.10;;
58752;SDS011;44525;46.052;13.610;2022-10-16T00:15:07;55.00;;;28.13;;
58752;SDS011;44525;46.052;13.610;2022-10-16T00:17:33;48.55;;;26.10;;
58752;SDS011;44525;46.052;13.610;2022-10-16T00:19:59;53.47;;;28.23;;
58752;SDS011;44525;46.052;13.610;2022-10-16T00:22:24;55.22;;;28.52;;
58752;SDS011;44525;46.052;13.610;2022-10-16T00:24:50;52.75;;;28.63;;
58752;SDS011;44525;46.052;13.610;2022-10-16T00:27:16;50.33;;;28.02;;
58752;SDS011;44525;46.052;13.610;2022-10-16T00:29:42;52.00;;;28.05;;
58752;SDS011;44525;46.052;13.610;2022-10-16T00:32:07;47.90;;;26.23;;
58752;SDS011;44525;46.052;13.610;2022-10-16T00:34:33;50.25;;;27.17;;
58752;SDS011;44525;46.052;13.610;2022-10-16T00:36:59;52.78;;;26.75;;
58752;SDS011;44525;46.052;13.610;2022-10-16T00:39:24;46.88;;;26.00;;
58752;SDS011;44525;46.052;13.610;2022-10-16T00:41:50;49.10;;;26.77;;
58752;SDS011;44525;46.052;13.610;2022-10-16T00:47:18;50.45;;;26.05;;
58752;SDS011;44525;46.052;13.610;2022-10-16T00:49:47;49.92;;;27.65;;
58752;SDS011;44525;46.052;13.610;2022-10-16T00:52:16;45.05;;;26.70;;
58752;SDS011;44525;46.052;13.610;2022-10-16T00:54:42;51.63;;;28.45;;
58752;SDS011;44525;46.052;13.610;2022-10-16T00:57:10;57.08;;;29.45;;
58752;SDS011;44525;46.052;13.610;2022-10-16T00:59:36;53.67;;;28.67;;
58752;SDS011;44525;46.052;13.610;2022-10-16T01:02:06;50.78;;;27.23;;
58752;SDS011;44525;46.052;13.610;2022-10-16T01:04:37;47.83;;;28.80;;
58752;SDS011;44525;46.052;13.610;2022-10-16T01:18:05;48.75;;;26.80;;
58752;SDS011;44525;46.052;13.610;2022-10-16T01:20:43;50.47;;;27.30;;
58752;SDS011;44525;46.052;13.610;2022-10-16T01:23:21;43.30;;;24.75;;
58752;SDS011;44525;46.052;13.610;2022-10-16T01:31:15;53.28;;;26.88;;
58752;SDS011;44525;46.052;13.610;2022-10-16T01:33:45;51.05;;;27.75;;
58752;SDS011;44525;46.052;13.610;2022-10-16T01:36:21;47.88;;;26.70;;
58752;SDS011;44525;46.052;13.610;2022-10-16T01:38:51;58.20;;;28.30;;
58752;SDS011;44525;46.052;13.610;2022-10-16T01:41:22;53.13;;;26.85;;
58752;SDS011;44525;46.052;13.610;2022-10-16T01:43:56;51.20;;;26.63;;
58752;SDS011;44525;46.052;13.610;2022-10-16T01:46:28;49.83;;;27.67;;
58752;SDS011;44525;46.052;13.610;2022-10-16T01:48:56;54.67;;;26.90;;
58752;SDS011;44525;46.052;13.610;2022-10-16T01:51:24;52.92;;;29.40;;
58752;SDS011;44525;46.052;13.610;2022-10-16T01:53:52;53.38;;;28.35;;
58752;SDS011;44525;46.052;13.610;2022-10-16T01:56:21;51.08;;;27.92;;
58752;SDS011;44525;46.052;13.610;2022-10-16T01:58:54;50.83;;;27.65;;
58752;SDS011;44525;46.052;13.610;2022-10-16T02:01:24;46.28;;;25.70;;
58752;SDS011;44525;46.052;13.610;2022-10-16T02:03:54;46.35;;;26.33;;
58752;SDS011;44525;46.052;13.610;2022-10-16T02:06:24;49.75;;;26.63;;
58752;SDS011;44525;46.052;13.610;2022-10-16T02:08:50;47.92;;;27.13;;
58752;SDS011;44525;46.052;13.610;2022-10-16T02:11:16;49.35;;;26.83;;
58752;SDS011;44525;46.052;13.610;2022-10-16T02:13:44;44.67;;;25.38;;
58752;SDS011;44525;46.052;13.610;2022-10-16T02:16:13;56.58;;;28.35;;
58752;SDS011;44525;46.052;13.610;2022-10-16T02:18:39;49.65;;;26.90;;
58752;SDS011;44525;46.052;13.610;2022-10-16T02:21:22;45.42;;;24.67;;
58752;SDS011;44525;46.052;13.610;2022-10-16T02:23:53;48.60;;;26.58;;
58752;SDS011;44525;46.052;13.610;2022-10-16T02:26:30;49.22;;;26.45;;
58752;SDS011;44525;46.052;13.610;2022-10-16T02:29:02;47.13;;;25.90;;
58752;SDS011;44525;46.052;13.610;2022-10-16T02:31:35;45.67;;;25.80;;
58752;SDS011;44525;46.052;13.610;2022-10-16T02:34:06;48.20;;;27.17;;
58752;SDS011;44525;46.052;13.610;2022-10-16T02:36:33;45.78;;;26.00;;
58752;SDS011;44525;46.052;13.610;2022-10-16T02:39:02;58.13;;;28.13;;
58752;SDS011;44525;46.052;13.610;2022-10-16T02:41:29;46.25;;;25.30;;
58752;SDS011;44525;46.052;13.610;2022-10-16T02:43:56;47.80;;;26.60;;
58752;SDS011;44525;46.052;13.610;2022-10-16T02:46:21;51.65;;;26.23;;
58752;SDS011;44525;46.052;13.610;2022-10-16T02:48:47;61.95;;;27.92;;
58752;SDS011;44525;46.052;13.610;2022-10-16T02:51:12;49.28;;;26.55;;
58752;SDS011;44525;46.052;13.610;2022-10-16T02:53:38;54.60;;;27.50;;
58752;SDS011;44525;46.052;13.610;2022-10-16T02:56:03;51.20;;;28.30;;
58752;SDS011;44525;46.052;13.610;2022-10-16T02:58:29;51.80;;;28.13;;
58752;SDS011;44525;46.052;13.610;2022-10-16T03:00:55;53.90;;;28.98;;
58752;SDS011;44525;46.052;13.610;2022-10-16T03:03:21;61.38;;;27.45;;
58752;SDS011;44525;46.052;13.610;2022-10-16T03:05:46;55.22;;;28.73;;
58752;SDS011;44525;46.052;13.610;2022-10-16T03:08:12;52.97;;;28.58;;
58752;SDS011;44525;46.052;13.610;2022-10-16T03:10:37;53.58;;;27.63;;
58752;SDS011;44525;46.052;13.610;2022-10-16T03:13:03;55.03;;;29.52;;
58752;SDS011;44525;46.052;13.610;2022-10-16T03:15:29;54.15;;;29.45;;
58752;SDS011;44525;46.052;13.610;2022-10-16T03:17:55;54.67;;;28.88;;
58752;SDS011;44525;46.052;13.610;2022-10-16T03:20:23;62.10;;;29.63;;
58752;SDS011;44525;46.052;13.610;2022-10-16T03:22:49;47.30;;;26.65;;
58752;SDS011;44525;46.052;13.610;2022-10-16T03:25:14;50.10;;;26.60;;
58752;SDS011;44525;46.052;13.610;2022-10-16T03:27:39;54.05;;;26.88;;
58752;SDS011;44525;46.052;13.610;2022-10-16T03:30:05;45.95;;;26.92;;
58752;SDS011;44525;46.052;13.610;2022-10-16T03:32:31;46.90;;;26.85;;
58752;SDS011;44525;46.052;13.610;2022-10-16T03:34:56;53.58;;;27.90;;
58752;SDS011;44525;46.052;13.610;2022-10-16T03:37:22;50.72;;;26.60;;
58752;SDS011;44525;46.052;13.610;2022-10-16T03:39:48;48.03;;;25.92;;
58752;SDS011;44525;46.052;13.610;2022-10-16T03:42:14;51.00;;;26.90;;
58752;SDS011;44525;46.052;13.610;2022-10-16T03:44:39;51.25;;;28.23;;
58752;SDS011;44525;46.052;13.610;2022-10-16T03:47:04;55.45;;;26.88;;
58752;SDS011;44525;46.052;13.610;2022-10-16T03:49:30;48.50;;;25.60;;
58752;SDS011;44525;46.052;13.610;2022-10-16T03:51:55;44.38;;;24.73;;
58752;SDS011;44525;46.052;13.610;2022-10-16T03:54:21;50.25;;;27.27;;
58752;SDS011;44525;46.052;13.610;2022-10-16T03:56:47;46.78;;;24.80;;
58752;SDS011;44525;46.052;13.610;2022-10-16T03:59:13;52.55;;;27.38;;
58752;SDS011;44525;46.052;13.610;2022-10-16T04:01:38;46.20;;;27.20;;
58752;SDS011;44525;46.052;13.610;2022-10-16T04:04:04;48.15;;;25.50;;
58752;SDS011;44525;46.052;13.610;2022-10-16T04:06:29;47.38;;;26.05;;
58752;SDS011;44525;46.052;13.610;2022-10-16T04:08:55;46.22;;;26.52;;
58752;SDS011;44525;46.052;13.610;2022-10-16T04:11:21;58.65;;;27.48;;
58752;SDS011;44525;46.052;13.610;2022-10-16T04:13:46;51.80;;;25.85;;
58752;SDS011;44525;46.052;13.610;2022-10-16T04:16:12;47.03;;;25.73;;
58752;SDS011;44525;46.052;13.610;2022-10-16T04:18:37;46.80;;;25.25;;
58752;SDS011;44525;46.052;13.610;2022-10-16T04:21:06;43.35;;;25.88;;
58752;SDS011;44525;46.052;13.610;2022-10-16T04:23:32;47.80;;;26.05;;
58752;SDS011;44525;46.052;13.610;2022-10-16T04:25:58;57.83;;;26.73;;
58752;SDS011;44525;46.052;13.610;2022-10-16T04:28:24;47.67;;;26.63;;
58752;SDS011;44525;46.052;13.610;2022-10-16T04:30:50;53.13;;;29.30;;
58752;SDS011;44525;46.052;13.610;2022-10-16T04:33:15;61.75;;;31.85;;
58752;SDS011;44525;46.052;13.610;2022-10-16T04:35:41;51.33;;;28.95;;
58752;SDS011;44525;46.052;13.610;2022-10-16T04:38:06;59.38;;;28.80;;
58752;SDS011;44525;46.052;13.610;2022-10-16T04:40:32;54.10;;;28.30;;
58752;SDS011;44525;46.052;13.610;2022-10-16T04:42:58;48.47;;;26.20;;
58752;SDS011;44525;46.052;13.610;2022-10-16T04:45:24;51.88;;;26.77;;
58752;SDS011;44525;46.052;13.610;2022-10-16T04:47:50;53.45;;;27.75;;
58752;SDS011;44525;46.052;13.610;2022-10-16T04:50:15;57.63;;;27.67;;
58752;SDS011;44525;46.052;13.610;2022-10-16T04:52:41;61.20;;;29.05;;
58752;SDS011;44525;46.052;13.610;2022-10-16T04:55:06;59.75;;;29.80;;
58752;SDS011;44525;46.052;13.610;2022-10-16T04:57:32;50.33;;;29.48;;
58752;SDS011;44525;46.052;13.610;2022-10-16T04:59:58;58.22;;;29.02;;
58752;SDS011;44525;46.052;13.610;2022-10-16T05:02:25;49.75;;;27.48;;
58752;SDS011;44525;46.052;13.610;2022-10-16T05:04:51;52.65;;;27.98;;
58752;SDS011;44525;46.052;13.610;2022-10-16T05:07:17;52.83;;;28.85;;
58752;SDS011;44525;46.052;13.610;2022-10-16T05:09:43;51.67;;;28.42;;
58752;SDS011;44525;46.052;13.610;2022-10-16T05:12:08;54.67;;;28.52;;
58752;SDS011;44525;46.052;13.610;2022-10-16T05:14:34;53.95;;;28.75;;
58752;SDS011;44525;46.052;13.610;2022-10-16T05:17:00;58.10;;;30.00;;
58752;SDS011;44525;46.052;13.610;2022-10-16T05:19:25;58.58;;;30.25;;
58752;SDS011;44525;46.052;13.610;2022-10-16T05:21:51;56.25;;;30.05;;
58752;SDS011;44525;46.052;13.610;2022-10-16T05:24:16;52.60;;;29.13;;
58752;SDS011;44525;46.052;13.610;2022-10-16T05:26:42;52.78;;;28.00;;
58752;SDS011;44525;46.052;13.610;2022-10-16T05:29:09;58.80;;;29.73;;
58752;SDS011;44525;46.052;13.610;2022-10-16T05:31:34;60.40;;;31.63;;
58752;SDS011;44525;46.052;13.610;2022-10-16T05:34:00;58.95;;;30.85;;
58752;SDS011;44525;46.052;13.610;2022-10-16T05:36:27;59.10;;;31.30;;
58752;SDS011;44525;46.052;13.610;2022-10-16T05:38:52;61.63;;;31.90;;
58752;SDS011;44525;46.052;13.610;2022-10-16T05:41:19;61.33;;;31.67;;
58752;SDS011;44525;46.052;13.610;2022-10-16T05:43:47;54.88;;;28.45;;
58752;SDS011;44525;46.052;13.610;2022-10-16T05:46:13;51.83;;;28.88;;
58752;SDS011;44525;46.052;13.610;2022-10-16T05:48:38;50.80;;;29.25;;
58752;SDS011;44525;46.052;13.610;2022-10-16T05:51:05;57.85;;;28.73;;
58752;SDS011;44525;46.052;13.610;2022-10-16T05:53:32;54.25;;;28.38;;
58752;SDS011;44525;46.052;13.610;2022-10-16T05:55:59;53.63;;;30.52;;
58752;SDS011;44525;46.052;13.610;2022-10-16T05:58:27;54.75;;;29.02;;
58752;SDS011;44525;46.052;13.610;2022-10-16T06:00:55;52.65;;;30.85;;
58752;SDS011;44525;46.052;13.610;2022-10-16T06:03:23;55.63;;;30.25;;
58752;SDS011;44525;46.052;13.610;2022-10-16T06:05:48;54.67;;;29.92;;
58752;SDS011;44525;46.052;13.610;2022-10-16T06:08:14;53.33;;;29.45;;
58752;SDS011;44525;46.052;13.610;2022-10-16T06:10:39;60.60;;;29.58;;
58752;SDS011;44525;46.052;13.610;2022-10-16T06:13:05;56.13;;;30.30;;
58752;SDS011;44525;46.052;13.610;2022-10-16T06:15:30;56.15;;;29.38;;
58752;SDS011;44525;46.052;13.610;2022-10-16T06:17:56;62.72;;;31.70;;
58752;SDS011;44525;46.052;13.610;2022-10-16T06:20:22;57.13;;;30.05;;
58752;SDS011;44525;46.052;13.610;2022-10-16T06:22:47;60.05;;;30.70;;
58752;SDS011;44525;46.052;13.610;2022-10-16T06:25:13;60.55;;;29.98;;
58752;SDS011;44525;46.052;13.610;2022-10-16T06:27:41;54.80;;;30.38;;
58752;SDS011;44525;46.052;13.610;2022-10-16T06:30:07;57.33;;;29.67;;
58752;SDS011;44525;46.052;13.610;2022-10-16T06:32:33;56.38;;;30.10;;
58752;SDS011;44525;46.052;13.610;2022-10-16T06:34:59;61.90;;;31.50;;
58752;SDS011;44525;46.052;13.610;2022-10-16T06:37:25;68.43;;;31.30;;
58752;SDS011;44525;46.052;13.610;2022-10-16T06:39:51;52.42;;;29.77;;
58752;SDS011;44525;46.052;13.610;2022-10-16T06:42:20;59.92;;;32.83;;
58752;SDS011;44525;46.052;13.610;2022-10-16T06:44:45;60.28;;;33.13;;
58752;SDS011;44525;46.052;13.610;2022-10-16T06:47:11;61.55;;;32.17;;
58752;SDS011;44525;46.052;13.610;2022-10-16T06:49:37;63.20;;;31.05;;
58752;SDS011;44525;46.052;13.610;2022-10-16T06:52:02;50.35;;;29.58;;
58752;SDS011;44525;46.052;13.610;2022-10-16T06:54:29;57.17;;;30.90;;
58752;SDS011;44525;46.052;13.610;2022-10-16T06:56:54;53.80;;;30.80;;
58752;SDS011;44525;46.052;13.610;2022-10-16T06:59:20;59.15;;;32.15;;
58752;SDS011;44525;46.052;13.610;2022-10-16T07:01:46;62.53;;;33.17;;
58752;SDS011;44525;46.052;13.610;2022-10-16T07:04:13;55.40;;;31.00;;
58752;SDS011;44525;46.052;13.610;2022-10-16T07:06:38;53.08;;;28.48;;
58752;SDS011;44525;46.052;13.610;2022-10-16T07:09:05;56.60;;;29.83;;
58752;SDS011;44525;46.052;13.610;2022-10-16T07:11:30;54.95;;;29.98;;
58752;SDS011;44525;46.052;13.610;2022-10-16T07:13:56;55.28;;;29.42;;
58752;SDS011;44525;46.052;13.610;2022-10-16T07:16:23;54.65;;;29.08;;
58752;SDS011;44525;46.052;13.610;2022-10-16T07:18:50;51.45;;;30.05;;
58752;SDS011;44525;46.052;13.610;2022-10-16T07:21:20;59.95;;;30.42;;
58752;SDS011;44525;46.052;13.610;2022-10-16T07:23:50;51.65;;;29.27;;
58752;SDS011;44525;46.052;13.610;2022-10-16T07:26:16;56.63;;;29.08;;
58752;SDS011;44525;46.052;13.610;2022-10-16T07:28:42;47.50;;;27.25;;
58752;SDS011;44525;46.052;13.610;2022-10-16T07:31:10;50.97;;;29.58;;
58752;SDS011;44525;46.052;13.610;2022-10-16T07:33:38;55.90;;;29.15;;
58752;SDS011;44525;46.052;13.610;2022-10-16T07:36:05;58.20;;;30.50;;
58752;SDS011;44525;46.052;13.610;2022-10-16T07:38:31;59.90;;;31.23;;
58752;SDS011;44525;46.052;13.610;2022-10-16T07:41:00;55.55;;;31.08;;
58752;SDS011;44525;46.052;13.610;2022-10-16T07:43:28;55.00;;;28.50;;
58752;SDS011;44525;46.052;13.610;2022-10-16T07:45:53;51.53;;;28.27;;
58752;SDS011;44525;46.052;13.610;2022-10-16T07:48:20;54.00;;;29.13;;
58752;SDS011;44525;46.052;13.610;2022-10-16T07:50:46;57.63;;;30.17;;
58752;SDS011;44525;46.052;13.610;2022-10-16T07:53:12;55.45;;;28.73;;
58752;SDS011;44525;46.052;13.610;2022-10-16T07:55:38;50.58;;;28.92;;
58752;SDS011;44525;46.052;13.610;2022-10-16T07:58:04;54.60;;;29.55;;
58752;SDS011;44525;46.052;13.610;2022-10-16T08:00:30;56.80;;;29.85;;
58752;SDS011;44525;46.052;13.610;2022-10-16T08:02:57;53.35;;;30.10;;
58752;SDS011;44525;46.052;13.610;2022-10-16T08:05:28;52.22;;;28.92;;
58752;SDS011;44525;46.052;13.610;2022-10-16T08:07:55;58.20;;;30.95;;
58752;SDS011;44525;46.052;13.610;2022-10-16T08:10:22;49.75;;;29.23;;
58752;SDS011;44525;46.052;13.610;2022-10-16T08:12:49;59.92;;;30.13;;
58752;SDS011;44525;46.052;13.610;2022-10-16T08:15:16;51.28;;;29.58;;
58752;SDS011;44525;46.052;13.610;2022-10-16T08:17:41;53.08;;;28.42;;
58752;SDS011;44525;46.052;13.610;2022-10-16T08:20:07;52.88;;;28.52;;
58752;SDS011;44525;46.052;13.610;2022-10-16T08:22:33;52.30;;;28.88;;
58752;SDS011;44525;46.052;13.610;2022-10-16T08:24:59;55.53;;;28.63;;
58752;SDS011;44525;46.052;13.610;2022-10-16T08:27:24;50.65;;;28.73;;
58752;SDS011;44525;46.052;13.610;2022-10-16T08:29:49;47.60;;;28.52;;
58752;SDS011;44525;46.052;13.610;2022-10-16T08:32:15;48.53;;;28.15;;
58752;SDS011;44525;46.052;13.610;2022-10-16T08:34:41;55.30;;;29.42;;
58752;SDS011;44525;46.052;13.610;2022-10-16T08:37:06;49.28;;;28.70;;
58752;SDS011;44525;46.052;13.610;2022-10-16T08:39:33;50.22;;;28.73;;
58752;SDS011;44525;46.052;13.610;2022-10-16T08:50:10;51.95;;;29.50;;
58752;SDS011;44525;46.052;13.610;2022-10-16T08:52:41;52.85;;;30.58;;
58752;SDS011;44525;46.052;13.610;2022-10-16T08:57:55;51.30;;;28.90;;
58752;SDS011;44525;46.052;13.610;2022-10-16T09:00:20;48.15;;;26.90;;
58752;SDS011;44525;46.052;13.610;2022-10-16T09:17:01;44.83;;;26.48;;
58752;SDS011;44525;46.052;13.610;2022-10-16T09:19:38;49.35;;;28.27;;
58752;SDS011;44525;46.052;13.610;2022-10-16T09:22:15;44.22;;;24.73;;
58752;SDS011;44525;46.052;13.610;2022-10-16T09:24:42;43.10;;;25.88;;
58752;SDS011;44525;46.052;13.610;2022-10-16T09:27:11;48.47;;;25.15;;
58752;SDS011;44525;46.052;13.610;2022-10-16T09:29:39;43.25;;;24.15;;
58752;SDS011;44525;46.052;13.610;2022-10-16T09:32:12;45.78;;;25.98;;
58752;SDS011;44525;46.052;13.610;2022-10-16T09:34:43;43.20;;;26.13;;
58752;SDS011;44525;46.052;13.610;2022-10-16T09:37:14;45.65;;;26.63;;
58752;SDS011;44525;46.052;13.610;2022-10-16T09:39:47;40.90;;;25.42;;
58752;SDS011;44525;46.052;13.610;2022-10-16T09:44:47;45.20;;;24.55;;
58752;SDS011;44525;46.052;13.610;2022-10-16T09:47:16;40.40;;;25.13;;
58752;SDS011;44525;46.052;13.610;2022-10-16T09:52:48;42.88;;;25.98;;
58752;SDS011;44525;46.052;13.610;2022-10-16T09:55:14;46.08;;;26.15;;
58752;SDS011;44525;46.052;13.610;2022-10-16T09:57:51;42.20;;;25.23;;
58752;SDS011;44525;46.052;13.610;2022-10-16T10:00:17;45.72;;;26.38;;
58752;SDS011;44525;46.052;13.610;2022-10-16T10:02:44;39.35;;;24.38;;
58752;SDS011;44525;46.052;13.610;2022-10-16T10:05:28;40.95;;;24.45;;
58752;SDS011;44525;46.052;13.610;2022-10-16T10:08:03;41.47;;;25.15;;
58752;SDS011;44525;46.052;13.610;2022-10-16T10:10:34;39.13;;;24.02;;
58752;SDS011;44525;46.052;13.610;2022-10-16T10:13:16;39.20;;;24.83;;
58752;SDS011;44525;46.052;13.610;2022-10-16T10:15:47;40.22;;;23.85;;
58752;SDS011;44525;46.052;13.610;2022-10-16T10:18:20;41.88;;;23.85;;
58752;SDS011;44525;46.052;13.610;2022-10-16T10:20:58;41.13;;;25.95;;
58752;SDS011;44525;46.052;13.610;2022-10-16T10:23:26;41.90;;;25.20;;
58752;SDS011;44525;46.052;13.610;2022-10-16T10:26:13;45.00;;;26.00;;
58752;SDS011;44525;46.052;13.610;2022-10-16T10:31:20;45.53;;;28.08;;
58752;SDS011;44525;46.052;13.610;2022-10-16T10:36:57;45.03;;;26.98;;
58752;SDS011;44525;46.052;13.610;2022-10-16T10:40:04;45.38;;;26.75;;
58752;SDS011;44525;46.052;13.610;2022-10-16T10:42:36;49.63;;;29.13;;
58752;SDS011;44525;46.052;13.610;2022-10-16T10:54:13;47.35;;;27.02;;
58752;SDS011;44525;46.052;13.610;2022-10-16T11:01:56;46.25;;;26.95;;
58752;SDS011;44525;46.052;13.610;2022-10-16T11:09:39;43.15;;;27.35;;
58752;SDS011;44525;46.052;13.610;2022-10-16T11:12:20;48.85;;;25.88;;
58752;SDS011;44525;46.052;13.610;2022-10-16T11:14:50;39.45;;;26.83;;
58752;SDS011;44525;46.052;13.610;2022-10-16T11:20:34;42.80;;;26.00;;
58752;SDS011;44525;46.052;13.610;2022-10-16T11:25:39;53.13;;;30.15;;
58752;SDS011;44525;46.052;13.610;2022-10-16T11:28:19;60.63;;;31.92;;
58752;SDS011;44525;46.052;13.610;2022-10-16T11:33:35;62.33;;;32.97;;
58752;SDS011;44525;46.052;13.610;2022-10-16T11:36:14;62.67;;;33.00;;
58752;SDS011;44525;46.052;13.610;2022-10-16T11:41:39;56.95;;;31.05;;
58752;SDS011;44525;46.052;13.610;2022-10-16T11:47:16;63.25;;;36.45;;
58752;SDS011;44525;46.052;13.610;2022-10-16T11:49:47;50.97;;;29.52;;
58752;SDS011;44525;46.052;13.610;2022-10-16T11:52:28;55.30;;;31.83;;
58752;SDS011;44525;46.052;13.610;2022-10-16T11:55:15;51.67;;;29.70;;
58752;SDS011;44525;46.052;13.610;2022-10-16T11:57:56;57.00;;;32.58;;
58752;SDS011;44525;46.052;13.610;2022-10-16T12:00:32;64.47;;;36.33;;
58752;SDS011;44525;46.052;13.610;2022-10-16T12:05:52;60.38;;;32.40;;
58752;SDS011;44525;46.052;13.610;2022-10-16T12:08:52;52.08;;;30.88;;
58752;SDS011;44525;46.052;13.610;2022-10-16T12:16:58;59.15;;;32.20;;
58752;SDS011;44525;46.052;13.610;2022-10-16T12:19:26;57.57;;;31.60;;
58752;SDS011;44525;46.052;13.610;2022-10-16T12:21:57;56.85;;;31.67;;
58752;SDS011;44525;46.052;13.610;2022-10-16T12:24:30;57.72;;;31.55;;
58752;SDS011;44525;46.052;13.610;2022-10-16T12:26:58;60.28;;;33.65;;
58752;SDS011;44525;46.052;13.610;2022-10-16T12:29:35;62.13;;;32.03;;
58752;SDS011;44525;46.052;13.610;2022-10-16T12:32:05;61.78;;;33.55;;
58752;SDS011;44525;46.052;13.610;2022-10-16T12:34:46;52.50;;;31.05;;
58752;SDS011;44525;46.052;13.610;2022-10-16T12:39:59;62.05;;;34.38;;
58752;SDS011;44525;46.052;13.610;2022-10-16T12:42:38;57.20;;;31.42;;
58752;SDS011;44525;46.052;13.610;2022-10-16T12:45:24;51.22;;;31.02;;
58752;SDS011;44525;46.052;13.610;2022-10-16T12:47:59;60.80;;;32.78;;
58752;SDS011;44525;46.052;13.610;2022-10-16T12:53:03;64.22;;;34.83;;
58752;SDS011;44525;46.052;13.610;2022-10-16T13:01:23;60.95;;;32.10;;
58752;SDS011;44525;46.052;13.610;2022-10-16T13:07:13;55.80;;;32.10;;
58752;SDS011;44525;46.052;13.610;2022-10-16T13:09:49;54.35;;;30.85;;
58752;SDS011;44525;46.052;13.610;2022-10-16T13:20:36;53.17;;;30.13;;
58752;SDS011;44525;46.052;13.610;2022-10-16T13:25:45;49.95;;;26.98;;
58752;SDS011;44525;46.052;13.610;2022-10-16T13:28:31;49.42;;;28.25;;
58752;SDS011;44525;46.052;13.610;2022-10-16T13:31:00;48.00;;;29.02;;
58752;SDS011;44525;46.052;13.610;2022-10-16T13:36:00;46.35;;;27.52;;
58752;SDS011;44525;46.052;13.610;2022-10-16T13:38:26;48.65;;;27.65;;
58752;SDS011;44525;46.052;13.610;2022-10-16T13:40:59;48.50;;;28.70;;
58752;SDS011;44525;46.052;13.610;2022-10-16T13:43:34;50.13;;;29.20;;
58752;SDS011;44525;46.052;13.610;2022-10-16T13:46:05;49.60;;;29.80;;
58752;SDS011;44525;46.052;13.610;2022-10-16T13:48:35;54.75;;;28.35;;
58752;SDS011;44525;46.052;13.610;2022-10-16T13:51:17;50.05;;;27.70;;
58752;SDS011;44525;46.052;13.610;2022-10-16T13:53:44;48.42;;;27.05;;
58752;SDS011;44525;46.052;13.610;2022-10-16T13:56:11;50.95;;;29.30;;
58752;SDS011;44525;46.052;13.610;2022-10-16T13:58:42;44.00;;;27.23;;
58752;SDS011;44525;46.052;13.610;2022-10-16T14:01:18;51.97;;;29.10;;
58752;SDS011;44525;46.052;13.610;2022-10-16T14:03:48;47.25;;;28.17;;
58752;SDS011;44525;46.052;13.610;2022-10-16T14:06:16;48.83;;;27.80;;
58752;SDS011;44525;46.052;13.610;2022-10-16T14:08:48;54.33;;;30.85;;
58752;SDS011;44525;46.052;13.610;2022-10-16T14:11:22;49.78;;;28.25;;
58752;SDS011;44525;46.052;13.610;2022-10-16T14:13:49;45.03;;;27.38;;
58752;SDS011;44525;46.052;13.610;2022-10-16T14:16:16;55.30;;;29.67;;
58752;SDS011;44525;46.052;13.610;2022-10-16T14:21:43;51.95;;;27.95;;
58752;SDS011;44525;46.052;13.610;2022-10-16T14:24:12;46.35;;;27.73;;
58752;SDS011;44525;46.052;13.610;2022-10-16T14:26:46;49.95;;;28.75;;
58752;SDS011;44525;46.052;13.610;2022-10-16T14:29:14;45.97;;;27.40;;
58752;SDS011;44525;46.052;13.610;2022-10-16T14:31:53;54.17;;;28.70;;
58752;SDS011;44525;46.052;13.610;2022-10-16T14:37:00;45.78;;;27.98;;
58752;SDS011;44525;46.052;13.610;2022-10-16T14:39:32;49.22;;;28.52;;
58752;SDS011;44525;46.052;13.610;2022-10-16T14:41:58;52.72;;;29.23;;
58752;SDS011;44525;46.052;13.610;2022-10-16T14:44:27;44.60;;;27.08;;
58752;SDS011;44525;46.052;13.610;2022-10-16T14:46:55;53.30;;;26.95;;
58752;SDS011;44525;46.052;13.610;2022-10-16T14:49:21;52.08;;;27.55;;
58752;SDS011;44525;46.052;13.610;2022-10-16T14:51:49;51.75;;;27.05;;
58752;SDS011;44525;46.052;13.610;2022-10-16T14:54:15;46.95;;;27.42;;
58752;SDS011;44525;46.052;13.610;2022-10-16T14:56:46;52.40;;;28.13;;
58752;SDS011;44525;46.052;13.610;2022-10-16T14:59:16;47.10;;;25.77;;
58752;SDS011;44525;46.052;13.610;2022-10-16T15:01:45;45.30;;;26.75;;
58752;SDS011;44525;46.052;13.610;2022-10-16T15:04:11;46.05;;;27.33;;
58752;SDS011;44525;46.052;13.610;2022-10-16T15:06:39;44.55;;;26.73;;
58752;SDS011;44525;46.052;13.610;2022-10-16T15:09:04;44.55;;;26.08;;
58752;SDS011;44525;46.052;13.610;2022-10-16T15:11:29;47.13;;;24.90;;
58752;SDS011;44525;46.052;13.610;2022-10-16T15:13:57;52.38;;;26.63;;
58752;SDS011;44525;46.052;13.610;2022-10-16T15:16:23;44.00;;;26.00;;
58752;SDS011;44525;46.052;13.610;2022-10-16T15:18:49;41.20;;;25.63;;
58752;SDS011;44525;46.052;13.610;2022-10-16T15:21:20;42.45;;;24.30;;
58752;SDS011;44525;46.052;13.610;2022-10-16T15:23:51;46.67;;;27.08;;
58752;SDS011;44525;46.052;13.610;2022-10-16T15:26:17;48.65;;;26.90;;
58752;SDS011;44525;46.052;13.610;2022-10-16T15:28:42;43.45;;;25.80;;
58752;SDS011;44525;46.052;13.610;2022-10-16T15:31:08;43.60;;;26.10;;
58752;SDS011;44525;46.052;13.610;2022-10-16T15:33:33;42.55;;;24.13;;
58752;SDS011;44525;46.052;13.610;2022-10-16T15:36:00;38.15;;;24.23;;
58752;SDS011;44525;46.052;13.610;2022-10-16T15:38:27;37.53;;;24.35;;
58752;SDS011;44525;46.052;13.610;2022-10-16T15:40:53;38.13;;;23.35;;
58752;SDS011;44525;46.052;13.610;2022-10-16T15:43:19;36.53;;;22.23;;
58752;SDS011;44525;46.052;13.610;2022-10-16T15:45:58;42.55;;;25.52;;
58752;SDS011;44525;46.052;13.610;2022-10-16T15:48:28;44.97;;;24.65;;
58752;SDS011;44525;46.052;13.610;2022-10-16T15:50:55;43.63;;;26.02;;
58752;SDS011;44525;46.052;13.610;2022-10-16T15:53:20;49.58;;;26.10;;
58752;SDS011;44525;46.052;13.610;2022-10-16T15:55:45;47.00;;;25.73;;
58752;SDS011;44525;46.052;13.610;2022-10-16T15:58:11;52.33;;;26.02;;
58752;SDS011;44525;46.052;13.610;2022-10-16T16:00:36;47.25;;;25.20;;
58752;SDS011;44525;46.052;13.610;2022-10-16T16:03:03;43.58;;;25.63;;
58752;SDS011;44525;46.052;13.610;2022-10-16T16:05:28;40.95;;;25.70;;
58752;SDS011;44525;46.052;13.610;2022-10-16T16:07:54;57.60;;;31.08;;
58752;SDS011;44525;46.052;13.610;2022-10-16T16:10:21;45.55;;;27.65;;
58752;SDS011;44525;46.052;13.610;2022-10-16T16:12:49;44.50;;;26.35;;
58752;SDS011;44525;46.052;13.610;2022-10-16T16:15:17;46.55;;;25.63;;
58752;SDS011;44525;46.052;13.610;2022-10-16T16:17:44;44.80;;;24.60;;
58752;SDS011;44525;46.052;13.610;2022-10-16T16:20:10;43.78;;;26.73;;
58752;SDS011;44525;46.052;13.610;2022-10-16T16:22:36;47.13;;;27.98;;
58752;SDS011;44525;46.052;13.610;2022-10-16T16:25:02;46.70;;;28.83;;
58752;SDS011;44525;46.052;13.610;2022-10-16T16:27:27;47.20;;;27.17;;